Weather at Düsseldorf Airport

Public forecast

Using degrees Celsius for public forecast. Weather courtesy of forecast.io.

Current aviation weather report (METAR) for Düsseldorf Airport

2024/05/23 01:50 (retrieved 24 minutes ago)

EDDL 230150Z AUTO 19005KT CAVOK 12/09 Q1013 NOSIG

Closest aviation forecast (TAF) to Düsseldorf Airport

Closest forecast is Weeze Airport, 30.0 nm (55.5 km) NW.

2024/05/22 22:27 Ammendment (retrieved 4 hours ago)

TAF AMD TAF AMD EDLV 222222Z 2222/2318 CNL